createdAt,value
2018-11-07T00:00:51.164Z,7.70
2018-11-07T00:03:19.673Z,7.70
2018-11-07T00:05:47.775Z,7.80
2018-11-07T00:08:16.406Z,7.80
2018-11-07T00:10:44.396Z,7.80
2018-11-07T00:13:12.637Z,7.80
2018-11-07T00:15:41.862Z,7.80
2018-11-07T00:18:09.974Z,7.80
2018-11-07T00:20:38.346Z,7.80
2018-11-07T00:23:06.533Z,7.80
2018-11-07T00:25:34.608Z,7.80
2018-11-07T00:28:02.741Z,7.80
2018-11-07T00:30:31.000Z,7.80
2018-11-07T00:32:59.282Z,7.80
2018-11-07T00:35:27.387Z,7.80
2018-11-07T00:37:55.501Z,7.80
2018-11-07T00:40:23.593Z,7.80
2018-11-07T00:42:51.677Z,7.80
2018-11-07T00:45:19.874Z,7.80
2018-11-07T00:47:48.030Z,7.80
2018-11-07T00:50:17.287Z,7.80
2018-11-07T00:52:45.723Z,7.80
2018-11-07T00:55:14.576Z,7.80
2018-11-07T00:57:42.993Z,7.80
2018-11-07T01:00:12.125Z,7.80
2018-11-07T01:02:40.306Z,7.80
2018-11-07T01:05:09.205Z,7.80
2018-11-07T01:07:37.505Z,7.80
2018-11-07T01:10:06.736Z,7.80
2018-11-07T01:12:35.053Z,7.80
2018-11-07T01:15:03.512Z,7.80
2018-11-07T01:17:31.633Z,7.80
2018-11-07T01:20:00.849Z,7.80
2018-11-07T01:22:29.925Z,7.80
2018-11-07T01:24:58.364Z,7.80
2018-11-07T01:27:26.499Z,7.80
2018-11-07T01:29:54.748Z,7.80
2018-11-07T01:32:22.863Z,7.80
2018-11-07T01:34:51.134Z,7.80
2018-11-07T01:37:19.402Z,7.80
2018-11-07T01:39:47.592Z,7.80
2018-11-07T01:42:15.673Z,7.80
2018-11-07T01:44:43.821Z,7.80
2018-11-07T01:47:11.883Z,7.80
2018-11-07T01:49:40.629Z,7.80
2018-11-07T01:52:09.461Z,7.80
2018-11-07T01:54:38.300Z,7.80
2018-11-07T01:57:06.440Z,7.80
2018-11-07T01:59:34.548Z,7.80
2018-11-07T02:02:02.756Z,7.80
2018-11-07T02:04:30.845Z,7.80
2018-11-07T02:06:58.969Z,7.80
2018-11-07T02:09:27.048Z,7.80
2018-11-07T02:11:55.161Z,7.80
2018-11-07T02:14:23.312Z,7.80
2018-11-07T02:16:51.380Z,7.70
2018-11-07T02:19:19.517Z,7.70
2018-11-07T02:21:48.693Z,7.80
2018-11-07T02:24:16.739Z,7.70
2018-11-07T02:26:44.926Z,7.80
2018-11-07T02:29:13.569Z,7.80
2018-11-07T02:31:42.309Z,7.80
2018-11-07T02:34:10.519Z,7.80
2018-11-07T02:36:38.675Z,7.80
2018-11-07T02:39:08.986Z,7.70
2018-11-07T02:41:37.444Z,7.80
2018-11-07T02:44:05.914Z,7.80
2018-11-07T02:46:34.034Z,7.80
2018-11-07T02:49:02.411Z,7.70
2018-11-07T02:51:31.000Z,7.80
2018-11-07T02:54:00.239Z,7.80
2018-11-07T02:56:28.440Z,7.80
2018-11-07T02:58:56.885Z,7.70
2018-11-07T03:01:25.268Z,7.70
2018-11-07T03:03:53.364Z,7.70
2018-11-07T03:06:21.604Z,7.70
2018-11-07T03:08:50.266Z,7.70
2018-11-07T03:11:18.560Z,7.70
2018-11-07T03:13:46.657Z,7.70
2018-11-07T03:16:14.765Z,7.70
2018-11-07T03:18:42.953Z,7.70
2018-11-07T03:21:11.293Z,7.70
2018-11-07T03:23:39.532Z,7.70
2018-11-07T03:26:07.588Z,7.70
2018-11-07T03:28:35.720Z,7.70
2018-11-07T03:31:03.833Z,7.70
2018-11-07T03:33:32.065Z,7.70
2018-11-07T03:36:00.152Z,7.60
2018-11-07T03:38:28.280Z,7.70
2018-11-07T03:40:56.437Z,7.70
2018-11-07T03:43:24.577Z,7.70
2018-11-07T03:45:59.557Z,7.60
2018-11-07T03:48:29.254Z,7.70
2018-11-07T03:50:57.664Z,7.70
2018-11-07T03:53:26.018Z,7.70
2018-11-07T03:55:54.203Z,7.70
2018-11-07T03:58:22.270Z,7.70
2018-11-07T04:00:50.497Z,7.70
2018-11-07T04:03:18.961Z,7.60
2018-11-07T04:05:47.153Z,7.60
2018-11-07T04:08:15.238Z,7.70
2018-11-07T04:10:43.407Z,7.70
2018-11-07T04:13:11.658Z,7.70
2018-11-07T04:15:39.910Z,7.60
2018-11-07T04:18:08.102Z,7.70
2018-11-07T04:20:36.392Z,7.70
2018-11-07T04:23:04.832Z,7.60
2018-11-07T04:25:32.978Z,7.60
2018-11-07T04:28:01.176Z,7.60
2018-11-07T04:30:29.485Z,7.60
2018-11-07T04:32:57.634Z,7.60
2018-11-07T04:35:25.835Z,7.60
2018-11-07T04:37:53.985Z,7.60
2018-11-07T04:40:22.185Z,7.60
2018-11-07T04:42:50.414Z,7.60
2018-11-07T04:45:18.792Z,7.60
2018-11-07T04:47:46.985Z,7.60
2018-11-07T04:50:15.052Z,7.60
2018-11-07T04:52:43.796Z,7.60
2018-11-07T04:55:11.928Z,7.60
2018-11-07T04:57:40.146Z,7.60
2018-11-07T05:00:09.283Z,7.60
2018-11-07T05:02:37.510Z,7.60
2018-11-07T05:05:05.845Z,7.60
2018-11-07T05:07:34.868Z,7.50
2018-11-07T05:10:03.210Z,7.60
2018-11-07T05:12:31.253Z,7.60
2018-11-07T05:15:00.192Z,7.50
2018-11-07T05:17:28.457Z,7.60
2018-11-07T05:19:56.686Z,7.50
2018-11-07T05:22:25.065Z,7.50
2018-11-07T05:24:53.196Z,7.50
2018-11-07T05:27:22.213Z,7.50
2018-11-07T05:29:50.685Z,7.50
2018-11-07T05:32:18.873Z,7.50
2018-11-07T05:34:47.501Z,7.50
2018-11-07T05:37:15.789Z,7.50
2018-11-07T05:39:43.933Z,7.50
2018-11-07T05:42:12.104Z,7.60
2018-11-07T05:44:40.221Z,7.50
2018-11-07T05:47:08.360Z,7.50
2018-11-07T05:49:36.593Z,7.50
2018-11-07T05:52:04.805Z,7.50
2018-11-07T05:54:33.017Z,7.50
2018-11-07T05:57:01.869Z,7.50
2018-11-07T05:59:30.009Z,7.50
2018-11-07T06:01:58.152Z,7.50
2018-11-07T06:04:26.285Z,7.50
2018-11-07T06:06:55.479Z,7.50
2018-11-07T06:09:23.812Z,7.50
2018-11-07T06:11:52.620Z,7.50
2018-11-07T06:14:20.805Z,7.50
2018-11-07T06:16:48.989Z,7.40
2018-11-07T06:19:17.165Z,7.50
2018-11-07T06:21:45.399Z,7.50
2018-11-07T06:24:13.602Z,7.50
2018-11-07T06:26:41.707Z,7.50
2018-11-07T06:29:09.809Z,7.50
2018-11-07T06:31:37.965Z,7.50
2018-11-07T06:34:06.090Z,7.50
2018-11-07T06:36:34.325Z,7.40
2018-11-07T06:39:02.610Z,7.50
2018-11-07T06:41:30.669Z,7.50
2018-11-07T06:43:58.777Z,7.50
2018-11-07T06:46:27.128Z,7.50
2018-11-07T06:48:55.253Z,7.50
2018-11-07T06:51:23.403Z,7.40
2018-11-07T06:53:51.598Z,7.40
2018-11-07T06:56:19.837Z,7.40
2018-11-07T06:58:47.997Z,7.50
2018-11-07T07:01:16.127Z,7.50
2018-11-07T07:03:44.281Z,7.50
2018-11-07T07:06:12.507Z,7.40
2018-11-07T07:08:40.640Z,7.40
2018-11-07T07:11:08.895Z,7.40
2018-11-07T07:13:37.354Z,7.40
2018-11-07T07:16:05.490Z,7.50
2018-11-07T07:18:34.067Z,7.50
2018-11-07T07:21:02.340Z,7.40
2018-11-07T07:23:30.517Z,7.50
2018-11-07T07:25:58.749Z,7.50
2018-11-07T07:28:26.831Z,7.50
2018-11-07T07:30:54.942Z,7.50
2018-11-07T07:33:23.114Z,7.50
2018-11-07T07:35:51.957Z,7.50
2018-11-07T07:38:20.411Z,7.40
2018-11-07T07:40:49.011Z,7.40
2018-11-07T07:43:17.305Z,7.50
2018-11-07T07:45:45.749Z,7.50
2018-11-07T07:48:14.099Z,7.50
2018-11-07T07:50:42.324Z,7.50
2018-11-07T07:53:10.636Z,7.50
2018-11-07T07:55:38.761Z,7.50
2018-11-07T07:58:07.033Z,7.50
2018-11-07T08:00:35.170Z,7.50
2018-11-07T08:03:03.381Z,7.50
2018-11-07T08:05:31.553Z,7.50
2018-11-07T08:07:59.833Z,7.50
2018-11-07T08:10:28.009Z,7.50
2018-11-07T08:12:56.326Z,7.50
2018-11-07T08:15:24.569Z,7.50
2018-11-07T08:17:52.856Z,7.50
2018-11-07T08:20:20.964Z,7.50
2018-11-07T08:22:49.601Z,7.50
2018-11-07T08:25:17.809Z,7.50
2018-11-07T08:27:45.942Z,7.50
2018-11-07T08:30:15.422Z,7.50
2018-11-07T08:32:43.696Z,7.50
2018-11-07T08:35:13.690Z,7.50
2018-11-07T08:37:42.740Z,7.50
2018-11-07T08:40:11.961Z,7.50
2018-11-07T08:42:41.321Z,7.50
2018-11-07T08:45:11.442Z,7.50
2018-11-07T08:47:39.867Z,7.60
2018-11-07T08:50:09.268Z,7.60
2018-11-07T08:52:37.649Z,7.60
2018-11-07T08:55:06.620Z,7.60
2018-11-07T08:57:35.253Z,7.60
2018-11-07T09:00:03.561Z,7.60
2018-11-07T09:02:31.852Z,7.60
2018-11-07T09:04:59.960Z,7.60
2018-11-07T09:07:28.197Z,7.60
2018-11-07T09:09:56.275Z,7.60
2018-11-07T09:12:24.502Z,7.60
2018-11-07T09:14:52.728Z,7.60
2018-11-07T09:17:20.812Z,7.60
2018-11-07T09:19:48.970Z,7.60
2018-11-07T09:22:17.277Z,7.60
2018-11-07T09:24:45.451Z,7.60
2018-11-07T09:27:13.537Z,7.60
2018-11-07T09:29:41.769Z,7.60
2018-11-07T09:32:10.062Z,7.60
2018-11-07T09:34:38.825Z,7.60
2018-11-07T09:37:06.934Z,7.60
2018-11-07T09:39:35.054Z,7.70
2018-11-07T09:42:03.482Z,7.60
2018-11-07T09:44:31.593Z,7.60
2018-11-07T09:46:59.698Z,7.60
2018-11-07T09:49:27.840Z,7.60
2018-11-07T09:51:55.993Z,7.60
2018-11-07T09:54:24.350Z,7.60
2018-11-07T09:56:52.545Z,7.60
2018-11-07T09:59:20.770Z,7.60
2018-11-07T10:01:49.433Z,7.60
2018-11-07T10:04:17.577Z,7.50
2018-11-07T10:06:45.689Z,7.50
2018-11-07T10:09:13.753Z,7.50
2018-11-07T10:11:42.004Z,7.40
2018-11-07T10:14:11.157Z,7.50
2018-11-07T10:16:39.468Z,7.50
2018-11-07T10:19:07.650Z,7.50
2018-11-07T10:21:35.801Z,7.50
2018-11-07T10:24:03.966Z,7.50
2018-11-07T10:26:32.181Z,7.50
2018-11-07T10:29:00.697Z,7.50
2018-11-07T10:31:28.747Z,7.50
2018-11-07T10:33:56.985Z,7.50
2018-11-07T10:36:25.302Z,7.50
2018-11-07T10:38:53.784Z,7.50
2018-11-07T10:41:28.490Z,7.50
2018-11-07T10:43:56.615Z,7.50
2018-11-07T10:46:24.833Z,7.50
2018-11-07T10:48:52.967Z,7.40
2018-11-07T10:51:22.180Z,7.40
2018-11-07T10:53:50.459Z,7.50
2018-11-07T10:56:18.833Z,7.50
2018-11-07T10:58:47.601Z,7.50
2018-11-07T11:01:20.909Z,7.50
2018-11-07T11:03:49.077Z,7.50
2018-11-07T11:06:17.206Z,7.60
2018-11-07T11:08:45.549Z,7.60
2018-11-07T11:11:13.825Z,7.60
2018-11-07T11:13:41.899Z,7.60
2018-11-07T11:16:10.821Z,7.50
2018-11-07T11:18:39.228Z,7.50
2018-11-07T11:21:07.597Z,7.50
2018-11-07T11:23:35.725Z,7.50
2018-11-07T11:26:04.027Z,7.50
2018-11-07T11:28:32.277Z,7.60
2018-11-07T11:31:00.725Z,7.50
2018-11-07T11:33:29.020Z,7.50
2018-11-07T11:35:58.013Z,7.50
2018-11-07T11:38:26.262Z,7.40
2018-11-07T11:40:54.520Z,7.40
2018-11-07T11:43:22.666Z,7.40
2018-11-07T11:45:50.781Z,7.50
2018-11-07T11:48:19.520Z,7.50
2018-11-07T11:50:48.359Z,7.50
2018-11-07T11:53:16.705Z,7.40
2018-11-07T11:55:44.782Z,7.40
2018-11-07T11:58:12.996Z,7.50
2018-11-07T12:00:41.230Z,7.50
2018-11-07T12:03:09.473Z,7.50
2018-11-07T12:05:37.591Z,7.50
2018-11-07T12:08:06.058Z,7.40
2018-11-07T12:10:34.235Z,7.40
2018-11-07T12:13:02.453Z,7.40
2018-11-07T12:15:30.688Z,7.40
2018-11-07T12:17:58.905Z,7.40
2018-11-07T12:20:27.229Z,7.50
2018-11-07T12:22:55.348Z,7.40
2018-11-07T12:25:23.438Z,7.40
2018-11-07T12:27:51.553Z,7.40
2018-11-07T12:30:21.086Z,7.40
2018-11-07T12:32:50.222Z,7.40
2018-11-07T12:35:19.103Z,7.50
2018-11-07T12:37:47.440Z,7.50
2018-11-07T12:41:44.935Z,7.50
2018-11-07T12:44:13.073Z,7.60
2018-11-07T12:46:41.341Z,7.50
2018-11-07T12:49:09.454Z,7.50
2018-11-07T12:51:37.821Z,7.50
2018-11-07T12:54:06.102Z,7.50
2018-11-07T12:56:34.234Z,7.50
2018-11-07T12:59:03.052Z,7.50
2018-11-07T13:01:31.182Z,7.60
2018-11-07T13:03:59.242Z,7.60
2018-11-07T13:06:27.414Z,7.50
2018-11-07T13:08:56.671Z,7.50
2018-11-07T13:11:24.855Z,7.50
2018-11-07T13:13:52.973Z,7.50
2018-11-07T13:16:21.861Z,7.50
2018-11-07T13:18:49.969Z,7.50
2018-11-07T13:21:18.316Z,7.40
2018-11-07T13:23:46.429Z,7.40
2018-11-07T13:26:15.214Z,7.40
2018-11-07T13:28:43.463Z,7.40
2018-11-07T13:31:11.557Z,7.30
2018-11-07T13:33:40.320Z,7.40
2018-11-07T13:36:08.589Z,7.40
2018-11-07T13:38:36.888Z,7.40
2018-11-07T13:41:05.395Z,7.30
2018-11-07T13:43:33.508Z,7.40
2018-11-07T13:46:01.795Z,7.40
2018-11-07T13:48:29.985Z,7.40
2018-11-07T13:50:58.254Z,7.30
2018-11-07T13:53:26.717Z,7.30
2018-11-07T13:55:54.825Z,7.30
2018-11-07T13:58:22.973Z,7.30
2018-11-07T14:00:51.071Z,7.30
2018-11-07T14:03:19.298Z,7.30
2018-11-07T14:05:47.577Z,7.30
2018-11-07T14:08:15.629Z,7.30
2018-11-07T14:10:43.670Z,7.30
2018-11-07T14:13:11.929Z,7.20
2018-11-07T14:15:40.250Z,7.20
2018-11-07T14:18:08.424Z,7.20
2018-11-07T14:20:36.559Z,7.20
2018-11-07T14:23:04.690Z,7.20
2018-11-07T14:25:32.848Z,7.20
2018-11-07T14:28:01.425Z,7.20
2018-11-07T14:30:29.385Z,7.20
2018-11-07T14:32:58.825Z,7.20
2018-11-07T14:35:27.426Z,7.20
2018-11-07T14:37:56.268Z,7.20
2018-11-07T14:40:24.582Z,7.20
2018-11-07T14:42:52.769Z,7.20
2018-11-07T14:45:21.101Z,7.20
2018-11-07T14:47:49.380Z,7.20
2018-11-07T14:50:17.521Z,7.20
2018-11-07T14:52:45.828Z,7.20
2018-11-07T14:55:14.341Z,7.20
2018-11-07T14:57:42.469Z,7.20
2018-11-07T15:00:12.654Z,7.20
2018-11-07T15:02:41.384Z,7.20
2018-11-07T15:05:10.809Z,7.20
2018-11-07T15:07:39.306Z,7.20
2018-11-07T15:10:08.229Z,7.20
2018-11-07T15:12:36.380Z,7.20
2018-11-07T15:15:04.961Z,7.20
2018-11-07T15:17:33.206Z,7.20
2018-11-07T15:20:01.518Z,7.20
2018-11-07T15:22:29.776Z,7.20
2018-11-07T15:24:58.254Z,7.20
2018-11-07T15:27:26.673Z,7.20
2018-11-07T15:29:54.718Z,7.20
2018-11-07T15:32:22.871Z,7.20
2018-11-07T15:34:51.286Z,7.20
2018-11-07T15:37:19.418Z,7.20
2018-11-07T15:39:47.510Z,7.20
2018-11-07T15:42:15.981Z,7.20
2018-11-07T15:44:44.186Z,7.20
2018-11-07T15:47:12.331Z,7.10
2018-11-07T15:49:43.305Z,7.10
2018-11-07T15:52:11.552Z,7.10
2018-11-07T15:54:39.788Z,7.10
2018-11-07T15:57:08.851Z,7.10
2018-11-07T15:59:36.998Z,7.10
2018-11-07T16:02:06.367Z,7.10
2018-11-07T16:04:34.576Z,7.00
2018-11-07T16:07:02.774Z,7.00
2018-11-07T16:09:30.937Z,6.90
2018-11-07T16:11:59.301Z,6.90
2018-11-07T16:14:27.493Z,6.90
2018-11-07T16:16:55.869Z,6.90
2018-11-07T16:19:24.056Z,6.90
2018-11-07T19:35:15.145Z,7.20
2018-11-07T19:37:44.371Z,7.20
2018-11-07T19:40:13.944Z,7.20
2018-11-07T19:42:43.012Z,7.20
2018-11-07T19:45:13.424Z,7.20
2018-11-07T19:47:41.697Z,7.20
2018-11-07T19:50:11.314Z,7.20
2018-11-07T19:52:39.496Z,7.20
2018-11-07T19:55:08.824Z,7.20
2018-11-07T19:57:36.997Z,7.20
2018-11-07T20:00:05.789Z,7.20
2018-11-07T20:02:34.664Z,7.20
2018-11-07T20:05:02.852Z,7.20
2018-11-07T20:07:31.064Z,7.20
2018-11-07T20:09:59.241Z,7.20
2018-11-07T20:12:27.669Z,7.20
2018-11-07T20:14:55.770Z,7.20
2018-11-07T20:17:24.484Z,7.20
2018-11-07T20:19:52.729Z,7.20
2018-11-07T20:22:20.911Z,7.20
2018-11-07T20:24:49.387Z,7.20
2018-11-07T20:27:17.569Z,7.20
2018-11-07T20:29:45.682Z,7.20
2018-11-07T20:32:13.762Z,7.20
2018-11-07T20:34:42.025Z,7.20
2018-11-07T20:37:10.082Z,7.20
2018-11-07T20:39:38.245Z,7.30
2018-11-07T20:42:06.770Z,7.20
2018-11-07T20:44:34.910Z,7.30
2018-11-07T20:47:03.042Z,7.30
2018-11-07T20:49:31.215Z,7.30
2018-11-07T20:51:59.565Z,7.30
2018-11-07T20:54:27.658Z,7.20
2018-11-07T20:56:55.910Z,7.30
2018-11-07T20:59:24.146Z,7.30
2018-11-07T21:01:52.423Z,7.30
2018-11-07T21:04:20.553Z,7.30
2018-11-07T21:06:49.598Z,7.30
2018-11-07T21:09:17.714Z,7.30
2018-11-07T21:11:46.849Z,7.30
2018-11-07T21:14:15.094Z,7.30
2018-11-07T21:16:44.195Z,7.30
2018-11-07T21:19:12.781Z,7.30
2018-11-07T21:21:41.033Z,7.20
2018-11-07T21:24:09.241Z,7.20
2018-11-07T21:26:37.494Z,7.20
2018-11-07T21:29:05.765Z,7.20
2018-11-07T21:31:34.115Z,7.20
2018-11-07T21:34:02.957Z,7.30
2018-11-07T21:36:31.890Z,7.20
2018-11-07T21:38:59.974Z,7.20
2018-11-07T21:41:28.189Z,7.20
2018-11-07T21:43:56.559Z,7.20
2018-11-07T21:46:24.623Z,7.20
2018-11-07T21:48:53.658Z,7.20
2018-11-07T21:51:21.824Z,7.20
2018-11-07T21:53:49.972Z,7.20
2018-11-07T21:56:18.232Z,7.20
2018-11-07T21:58:46.336Z,7.20
2018-11-07T22:01:14.552Z,7.20
2018-11-07T22:03:42.862Z,7.20
2018-11-07T22:06:10.953Z,7.20
2018-11-07T22:08:39.077Z,7.20
2018-11-07T22:11:07.297Z,7.20
2018-11-07T22:13:35.492Z,7.20
2018-11-07T22:16:03.572Z,7.20
2018-11-07T22:18:31.932Z,7.20
2018-11-07T22:21:00.240Z,7.20
2018-11-07T22:23:28.457Z,7.20
2018-11-07T22:25:57.425Z,7.20
2018-11-07T22:28:25.509Z,7.20
2018-11-07T22:30:53.597Z,7.20
2018-11-07T22:33:21.750Z,7.20
2018-11-07T22:35:49.912Z,7.20
2018-11-07T22:38:18.209Z,7.20
2018-11-07T22:40:46.989Z,7.20
2018-11-07T22:43:15.086Z,7.20
2018-11-07T22:45:43.207Z,7.20
2018-11-07T22:48:11.313Z,7.20
2018-11-07T22:50:40.033Z,7.20
2018-11-07T22:53:08.179Z,7.20
2018-11-07T22:55:36.573Z,7.20
2018-11-07T22:58:05.616Z,7.20
2018-11-07T23:00:39.089Z,7.20
2018-11-07T23:03:07.374Z,7.20
2018-11-07T23:05:35.690Z,7.20
2018-11-07T23:08:03.796Z,7.20
2018-11-07T23:10:32.612Z,7.20
2018-11-07T23:13:00.723Z,7.20
2018-11-07T23:15:49.141Z,7.20
2018-11-07T23:18:18.357Z,7.20
2018-11-07T23:20:46.797Z,7.20
2018-11-07T23:23:15.353Z,7.20
2018-11-07T23:25:43.746Z,7.20
2018-11-07T23:28:11.936Z,7.20
2018-11-07T23:30:40.459Z,7.20
2018-11-07T23:33:08.701Z,7.20
2018-11-07T23:35:36.905Z,7.20
2018-11-07T23:38:05.113Z,7.20
2018-11-07T23:40:33.223Z,7.20
2018-11-07T23:43:01.355Z,7.20
2018-11-07T23:45:29.544Z,7.20
2018-11-07T23:47:57.655Z,7.20
2018-11-07T23:50:25.842Z,7.20
2018-11-07T23:52:54.295Z,7.20
2018-11-07T23:55:23.486Z,7.20
2018-11-07T23:57:52.441Z,7.20
